PWSweather.com
Personal Weather Stations
Station Observations
RIORANCHO
Corrales Heights, Rio Rancho, NM 87124

Corrales HeightsRio Rancho, NM 87124

Lat: 35.241928, Lon: -106.647095

Elevation: 5297

Station Type: Davis Vantage Pro 2 Plus

http://www.weatherriorancho.com

High Low Average
Temperature 49.4°F9.7°C 19.0°F-7.2°C 33.1°F0.6°C
Dew Point 14.5°F-9.7°C 8.0°F-13.3°C 10.9°F-11.7°C
Winds 8.1 mph 13.0 kmh Calm Calm 2.0 mph SSW3.2 kmh SSW
Wind Gusts 12.7 mph20.4 kmh -- 5.0 mph8.0 kmh
Humidity 62% 24% 42%
Pressure 30.34 in1027.4 mb 30.19 in1022.4 mb -
Precipitation 0.00 in0.0 mm - -
Hour Temp Dew Point Humidity Winds Wind Gusts Pressure Precip Precip Rate Daily Precip Total
12:00 AM 28.8°F-1.8°C 11.1°F-11.6°C 47% 6.9 mph N11.1 kmh N 9.2 mph14.8 kmh 30.27 in1025.1 mb - 0.00 in0.0 mm 0.00 in0.0 mm
12:20 AM 27.9°F-2.3°C 10.7°F-11.8°C 48% 5.8 mph N9.3 kmh N 11.5 mph18.5 kmh 30.28 in1025.4 mb - 0.00 in0.0 mm 0.00 in0.0 mm
12:30 AM 27.2°F-2.7°C 10.5°F-11.9°C 49% 6.9 mph N11.1 kmh N 10.4 mph16.7 kmh 30.28 in1025.4 mb - 0.00 in0.0 mm 0.00 in0.0 mm
12:40 AM 26.8°F-2.9°C 10.2°F-12.1°C 49% 6.9 mph N11.1 kmh N 11.5 mph18.5 kmh 30.28 in1025.4 mb - 0.00 in0.0 mm 0.00 in0.0 mm
12:50 AM 26.4°F-3.1°C 10.3°F-12.1°C 50% 8.1 mph N13.0 kmh N 11.5 mph18.5 kmh 30.28 in1025.4 mb - 0.00 in0.0 mm 0.00 in0.0 mm
01:00 AM 26.0°F-3.3°C 9.9°F-12.3°C 50% 5.8 mph N9.3 kmh N 11.5 mph18.5 kmh 30.28 in1025.4 mb - 0.00 in0.0 mm 0.00 in0.0 mm
01:10 AM 25.6°F-3.6°C 9.9°F-12.3°C 51% 5.8 mph N9.3 kmh N 12.7 mph20.4 kmh 30.28 in1025.4 mb - 0.00 in0.0 mm 0.00 in0.0 mm
01:20 AM 25.1°F-3.8°C 9.9°F-12.3°C 52% 5.8 mph N9.3 kmh N 9.2 mph14.8 kmh 30.28 in1025.4 mb - 0.00 in0.0 mm 0.00 in0.0 mm
01:40 AM 24.6°F-4.1°C 9.4°F-12.6°C 52% 1.2 mph N1.9 kmh N 3.5 mph5.6 kmh 30.29 in1025.7 mb - 0.00 in0.0 mm 0.00 in0.0 mm
01:50 AM 24.4°F-4.2°C 9.7°F-12.4°C 53% 8.1 mph N13.0 kmh N 11.5 mph18.5 kmh 30.29 in1025.7 mb - 0.00 in0.0 mm 0.00 in0.0 mm
02:00 AM 24.2°F-4.3°C 9.5°F-12.5°C 53% 4.6 mph NNW7.4 kmh NNW 8.1 mph13.0 kmh 30.29 in1025.7 mb - 0.00 in0.0 mm 0.00 in0.0 mm
02:10 AM 24.0°F-4.4°C 9.3°F-12.6°C 53% 3.5 mph N5.6 kmh N 11.5 mph18.5 kmh 30.29 in1025.7 mb - 0.00 in0.0 mm 0.00 in0.0 mm
02:20 AM 23.8°F-4.6°C 9.6°F-12.4°C 54% 4.6 mph NNW7.4 kmh NNW 9.2 mph14.8 kmh 30.29 in1025.7 mb - 0.00 in0.0 mm 0.00 in0.0 mm
02:30 AM 23.6°F-4.7°C 9.4°F-12.6°C 54% 4.6 mph NNW7.4 kmh NNW 8.1 mph13.0 kmh 30.29 in1025.7 mb - 0.00 in0.0 mm 0.00 in0.0 mm
02:40 AM 23.4°F-4.8°C 9.2°F-12.7°C 54% 3.5 mph N5.6 kmh N 8.1 mph13.0 kmh 30.29 in1025.7 mb - 0.00 in0.0 mm 0.00 in0.0 mm
02:50 AM 23.4°F-4.8°C 9.1°F-12.7°C 54% 8.1 mph NNW13.0 kmh NNW 11.5 mph18.5 kmh 30.29 in1025.7 mb - 0.00 in0.0 mm 0.00 in0.0 mm
03:00 AM 23.3°F-4.8°C 9.5°F-12.5°C 55% 5.8 mph N9.3 kmh N 9.2 mph14.8 kmh 30.29 in1025.7 mb - 0.00 in0.0 mm 0.00 in0.0 mm
03:10 AM 23.2°F-4.9°C 9.4°F-12.6°C 55% 5.8 mph N9.3 kmh N 6.9 mph11.1 kmh 30.29 in1025.7 mb - 0.00 in0.0 mm 0.00 in0.0 mm
03:20 AM 23.0°F-5.0°C 9.2°F-12.7°C 55% 3.5 mph N5.6 kmh N 6.9 mph11.1 kmh 30.29 in1025.7 mb - 0.00 in0.0 mm 0.00 in0.0 mm
03:30 AM 22.8°F-5.1°C 9.0°F-12.8°C 55% 4.6 mph N7.4 kmh N 5.8 mph9.3 kmh 30.30 in1026.1 mb - 0.00 in0.0 mm 0.00 in0.0 mm
03:40 AM 22.6°F-5.2°C 9.2°F-12.7°C 56% 5.8 mph N9.3 kmh N 8.1 mph13.0 kmh 30.30 in1026.1 mb - 0.00 in0.0 mm 0.00 in0.0 mm
03:50 AM 22.6°F-5.2°C 9.2°F-12.7°C 56% 8.1 mph N13.0 kmh N 10.4 mph16.7 kmh 30.30 in1026.1 mb - 0.00 in0.0 mm 0.00 in0.0 mm
04:00 AM 22.4°F-5.3°C 9.1°F-12.7°C 56% 2.3 mph N3.7 kmh N 3.5 mph5.6 kmh 30.29 in1025.7 mb - 0.00 in0.0 mm 0.00 in0.0 mm
04:10 AM 22.2°F-5.4°C 8.9°F-12.8°C 56% 5.8 mph N9.3 kmh N 8.1 mph13.0 kmh 30.29 in1025.7 mb - 0.00 in0.0 mm 0.00 in0.0 mm
04:20 AM 22.0°F-5.6°C 9.1°F-12.7°C 57% 4.6 mph N7.4 kmh N 10.4 mph16.7 kmh 30.30 in1026.1 mb - 0.00 in0.0 mm 0.00 in0.0 mm
04:31 AM 21.8°F-5.7°C 8.9°F-12.8°C 57% 6.9 mph N11.1 kmh N 11.5 mph18.5 kmh 30.30 in1026.1 mb - 0.00 in0.0 mm 0.00 in0.0 mm
04:40 AM 21.6°F-5.8°C 8.7°F-12.9°C 57% 6.9 mph N11.1 kmh N 10.4 mph16.7 kmh 30.30 in1026.1 mb - 0.00 in0.0 mm 0.00 in0.0 mm
04:50 AM 21.4°F-5.9°C 8.9°F-12.8°C 58% 5.8 mph N9.3 kmh N 9.2 mph14.8 kmh 30.30 in1026.1 mb - 0.00 in0.0 mm 0.00 in0.0 mm
05:00 AM 21.3°F-5.9°C 8.8°F-12.9°C 58% 4.6 mph N7.4 kmh N 9.2 mph14.8 kmh 30.30 in1026.1 mb - 0.00 in0.0 mm 0.00 in0.0 mm
05:10 AM 21.1°F-6.1°C 8.6°F-13.0°C 58% 4.6 mph N7.4 kmh N 9.2 mph14.8 kmh 30.30 in1026.1 mb - 0.00 in0.0 mm 0.00 in0.0 mm
05:21 AM 20.9°F-6.2°C 8.4°F-13.1°C 58% 6.9 mph N11.1 kmh N 11.5 mph18.5 kmh 30.31 in1026.4 mb - 0.00 in0.0 mm 0.00 in0.0 mm
05:30 AM 20.7°F-6.3°C 8.6°F-13.0°C 59% 4.6 mph N7.4 kmh N 10.4 mph16.7 kmh 30.31 in1026.4 mb - 0.00 in0.0 mm 0.00 in0.0 mm
05:40 AM 20.4°F-6.4°C 8.3°F-13.2°C 59% 3.5 mph N5.6 kmh N 8.1 mph13.0 kmh 30.31 in1026.4 mb - 0.00 in0.0 mm 0.00 in0.0 mm
06:00 AM 20.1°F-6.6°C 8.5°F-13.1°C 60% 3.5 mph N5.6 kmh N 6.9 mph11.1 kmh 30.31 in1026.4 mb - 0.00 in0.0 mm 0.00 in0.0 mm
06:10 AM 20.1°F-6.6°C 8.4°F-13.1°C 60% 2.3 mph N3.7 kmh N 8.1 mph13.0 kmh 30.31 in1026.4 mb - 0.00 in0.0 mm 0.00 in0.0 mm
06:21 AM 19.9°F-6.7°C 8.2°F-13.2°C 60% 4.6 mph N7.4 kmh N 5.8 mph9.3 kmh 30.31 in1026.4 mb - 0.00 in0.0 mm 0.00 in0.0 mm
06:30 AM 19.8°F-6.8°C 8.1°F-13.3°C 60% 4.6 mph NNW7.4 kmh NNW 9.2 mph14.8 kmh 30.31 in1026.4 mb - 0.00 in0.0 mm 0.00 in0.0 mm
06:40 AM 19.7°F-6.8°C 8.0°F-13.3°C 60% 6.9 mph NNW11.1 kmh NNW 10.4 mph16.7 kmh 30.32 in1026.8 mb - 0.00 in0.0 mm 0.00 in0.0 mm
06:51 AM 19.5°F-6.9°C 8.2°F-13.2°C 61% 2.3 mph N3.7 kmh N 3.5 mph5.6 kmh 30.33 in1027.1 mb - 0.00 in0.0 mm 0.00 in0.0 mm
07:00 AM 19.3°F-7.1°C 8.1°F-13.3°C 61% 2.3 mph NNW3.7 kmh NNW 8.1 mph13.0 kmh 30.33 in1027.1 mb - 0.00 in0.0 mm 0.00 in0.0 mm
07:10 AM 19.2°F-7.1°C 8.3°F-13.2°C 62% 4.6 mph N7.4 kmh N 9.2 mph14.8 kmh 30.33 in1027.1 mb - 0.00 in0.0 mm 0.00 in0.0 mm
07:30 AM 19.0°F-7.2°C 8.1°F-13.3°C 62% 3.5 mph N5.6 kmh N 9.2 mph14.8 kmh 30.34 in1027.4 mb - 0.00 in0.0 mm 0.00 in0.0 mm
07:40 AM 19.1°F-7.2°C 8.2°F-13.2°C 62% 4.6 mph N7.4 kmh N 9.2 mph14.8 kmh 30.34 in1027.4 mb - 0.00 in0.0 mm 0.00 in0.0 mm
07:50 AM 19.4°F-7.0°C 8.5°F-13.1°C 62% 5.8 mph NNW9.3 kmh NNW 6.9 mph11.1 kmh 30.34 in1027.4 mb - 0.00 in0.0 mm 0.00 in0.0 mm
08:00 AM 19.8°F-6.8°C 8.5°F-13.1°C 61% 5.8 mph N9.3 kmh N 10.4 mph16.7 kmh 30.34 in1027.4 mb - 0.00 in0.0 mm 0.00 in0.0 mm
08:10 AM 20.3°F-6.5°C 8.6°F-13.0°C 60% 3.5 mph N5.6 kmh N 6.9 mph11.1 kmh 30.34 in1027.4 mb - 0.00 in0.0 mm 0.00 in0.0 mm
08:20 AM 20.7°F-6.3°C 8.6°F-13.0°C 59% 3.5 mph N5.6 kmh N 10.4 mph16.7 kmh 30.34 in1027.4 mb - 0.00 in0.0 mm 0.00 in0.0 mm
08:30 AM 21.3°F-5.9°C 8.8°F-12.9°C 58% 6.9 mph N11.1 kmh N 9.2 mph14.8 kmh 30.34 in1027.4 mb - 0.00 in0.0 mm 0.00 in0.0 mm
08:40 AM 21.7°F-5.7°C 9.2°F-12.7°C 58% 4.6 mph N7.4 kmh N 10.4 mph16.7 kmh 30.34 in1027.4 mb - 0.00 in0.0 mm 0.00 in0.0 mm
08:50 AM 22.5°F-5.3°C 9.5°F-12.5°C 57% 5.8 mph N9.3 kmh N 9.2 mph14.8 kmh 30.34 in1027.4 mb - 0.00 in0.0 mm 0.00 in0.0 mm
09:00 AM 23.2°F-4.9°C 9.4°F-12.6°C 55% 3.5 mph N5.6 kmh N 8.1 mph13.0 kmh 30.34 in1027.4 mb - 0.00 in0.0 mm 0.00 in0.0 mm
09:10 AM 24.1°F-4.4°C 9.8°F-12.3°C 54% 3.5 mph N5.6 kmh N 6.9 mph11.1 kmh 30.34 in1027.4 mb - 0.00 in0.0 mm 0.00 in0.0 mm
09:20 AM 24.9°F-3.9°C 10.2°F-12.1°C 53% 5.8 mph N9.3 kmh N 6.9 mph11.1 kmh 30.34 in1027.4 mb - 0.00 in0.0 mm 0.00 in0.0 mm
09:30 AM 25.4°F-3.7°C 9.8°F-12.3°C 51% 4.6 mph NNE7.4 kmh NNE 6.9 mph11.1 kmh 30.34 in1027.4 mb - 0.00 in0.0 mm 0.00 in0.0 mm
09:41 AM 26.2°F-3.2°C 10.1°F-12.2°C 50% 2.3 mph N3.7 kmh N 8.1 mph13.0 kmh 30.34 in1027.4 mb - 0.00 in0.0 mm 0.00 in0.0 mm
09:50 AM 27.3°F-2.6°C 10.6°F-11.9°C 49% 3.5 mph NNE5.6 kmh NNE 5.8 mph9.3 kmh 30.34 in1027.4 mb - 0.00 in0.0 mm 0.00 in0.0 mm
10:00 AM 27.9°F-2.3°C 10.7°F-11.8°C 48% 2.3 mph N3.7 kmh N 2.3 mph3.7 kmh 30.34 in1027.4 mb - 0.00 in0.0 mm 0.00 in0.0 mm
10:10 AM 29.1°F-1.6°C 10.9°F-11.7°C 46% 2.3 mph N3.7 kmh N 3.5 mph5.6 kmh 30.34 in1027.4 mb - 0.00 in0.0 mm 0.00 in0.0 mm
10:20 AM 29.8°F-1.2°C 10.5°F-11.9°C 44% 2.3 mph N3.7 kmh N 3.5 mph5.6 kmh 30.34 in1027.4 mb - 0.00 in0.0 mm 0.00 in0.0 mm
10:30 AM 30.6°F-0.8°C 10.7°F-11.8°C 43% 2.3 mph NE3.7 kmh NE 3.5 mph5.6 kmh 30.34 in1027.4 mb - 0.00 in0.0 mm 0.00 in0.0 mm
10:50 AM 31.7°F-0.2°C 11.2°F-11.6°C 42% 1.2 mph NNE1.9 kmh NNE 2.3 mph3.7 kmh 30.33 in1027.1 mb - 0.00 in0.0 mm 0.00 in0.0 mm
11:00 AM 32.9°F0.5°C 11.2°F-11.6°C 40% Calm Calm -- 30.32 in1026.8 mb - 0.00 in0.0 mm 0.00 in0.0 mm
11:20 AM 35.9°F2.2°C 12.7°F-10.7°C 38% Calm Calm -- 30.32 in1026.8 mb - 0.00 in0.0 mm 0.00 in0.0 mm
11:30 AM 37.2°F2.9°C 11.3°F-11.5°C 34% Calm Calm -- 30.31 in1026.4 mb - 0.00 in0.0 mm 0.00 in0.0 mm
11:40 AM 38.2°F3.4°C 12.3°F-10.9°C 34% Calm Calm -- 30.30 in1026.1 mb - 0.00 in0.0 mm 0.00 in0.0 mm
11:50 AM 40.7°F4.8°C 13.1°F-10.5°C 32% Calm Calm -- 30.30 in1026.1 mb - 0.00 in0.0 mm 0.00 in0.0 mm
12:00 PM 41.5°F5.3°C 13.1°F-10.5°C 31% Calm Calm 3.5 mph5.6 kmh 30.29 in1025.7 mb - 0.00 in0.0 mm 0.00 in0.0 mm
12:10 PM 39.6°F4.2°C 11.4°F-11.4°C 31% Calm Calm 1.2 mph1.9 kmh 30.28 in1025.4 mb - 0.00 in0.0 mm 0.00 in0.0 mm
12:20 PM 40.0°F4.4°C 11.7°F-11.3°C 31% 1.2 mph S1.9 kmh S 4.6 mph7.4 kmh 30.28 in1025.4 mb - 0.00 in0.0 mm 0.00 in0.0 mm
12:30 PM 40.4°F4.7°C 12.1°F-11.1°C 31% 1.2 mph S1.9 kmh S 3.5 mph5.6 kmh 30.27 in1025.1 mb - 0.00 in0.0 mm 0.00 in0.0 mm
12:40 PM 40.9°F4.9°C 12.5°F-10.8°C 31% 1.2 mph S1.9 kmh S 3.5 mph5.6 kmh 30.27 in1025.1 mb - 0.00 in0.0 mm 0.00 in0.0 mm
12:50 PM 42.1°F5.6°C 12.8°F-10.7°C 30% 1.2 mph S1.9 kmh S 4.6 mph7.4 kmh 30.26 in1024.7 mb - 0.00 in0.0 mm 0.00 in0.0 mm
01:00 PM 42.0°F5.6°C 12.7°F-10.7°C 30% 2.3 mph S3.7 kmh S 4.6 mph7.4 kmh 30.26 in1024.7 mb - 0.00 in0.0 mm 0.00 in0.0 mm
01:10 PM 43.0°F6.1°C 13.6°F-10.2°C 30% 3.5 mph SE5.6 kmh SE 5.8 mph9.3 kmh 30.25 in1024.4 mb - 0.00 in0.0 mm 0.00 in0.0 mm
01:20 PM 43.6°F6.4°C 12.6°F-10.8°C 28% 1.2 mph SSE1.9 kmh SSE 4.6 mph7.4 kmh 30.25 in1024.4 mb - 0.00 in0.0 mm 0.00 in0.0 mm
01:30 PM 44.6°F7.0°C 12.7°F-10.7°C 27% Calm Calm 1.2 mph1.9 kmh 30.24 in1024.0 mb - 0.00 in0.0 mm 0.00 in0.0 mm
01:40 PM 45.4°F7.4°C 14.2°F-9.9°C 28% 1.2 mph SSE1.9 kmh SSE 2.3 mph3.7 kmh 30.23 in1023.7 mb - 0.00 in0.0 mm 0.00 in0.0 mm
01:50 PM 46.1°F7.8°C 14.0°F-10.0°C 27% Calm Calm 3.5 mph5.6 kmh 30.23 in1023.7 mb - 0.00 in0.0 mm 0.00 in0.0 mm
02:00 PM 46.0°F7.8°C 13.8°F-10.1°C 27% Calm Calm 1.2 mph1.9 kmh 30.22 in1023.4 mb - 0.00 in0.0 mm 0.00 in0.0 mm
02:10 PM 46.8°F8.2°C 13.7°F-10.2°C 26% Calm Calm 2.3 mph3.7 kmh 30.22 in1023.4 mb - 0.00 in0.0 mm 0.00 in0.0 mm
02:20 PM 47.2°F8.4°C 13.1°F-10.5°C 25% Calm Calm 1.2 mph1.9 kmh 30.21 in1023.0 mb - 0.00 in0.0 mm 0.00 in0.0 mm
02:40 PM 47.9°F8.8°C 13.7°F-10.2°C 25% 1.2 mph SSE1.9 kmh SSE 3.5 mph5.6 kmh 30.20 in1022.7 mb - 0.00 in0.0 mm 0.00 in0.0 mm
02:50 PM 48.2°F9.0°C 13.0°F-10.6°C 24% Calm Calm 3.5 mph5.6 kmh 30.20 in1022.7 mb - 0.00 in0.0 mm 0.00 in0.0 mm
03:00 PM 48.3°F9.1°C 13.2°F-10.4°C 24% Calm Calm 4.6 mph7.4 kmh 30.20 in1022.7 mb - 0.00 in0.0 mm 0.00 in0.0 mm
03:10 PM 48.8°F9.3°C 13.5°F-10.3°C 24% 1.2 mph SSE1.9 kmh SSE 3.5 mph5.6 kmh 30.20 in1022.7 mb - 0.00 in0.0 mm 0.00 in0.0 mm
03:20 PM 49.1°F9.5°C 13.8°F-10.1°C 24% 1.2 mph S1.9 kmh S 6.9 mph11.1 kmh 30.20 in1022.7 mb - 0.00 in0.0 mm 0.00 in0.0 mm
03:30 PM 48.8°F9.3°C 13.5°F-10.3°C 24% 1.2 mph SSW1.9 kmh SSW 3.5 mph5.6 kmh 30.20 in1022.7 mb - 0.00 in0.0 mm 0.00 in0.0 mm
03:40 PM 49.3°F9.6°C 14.0°F-10.0°C 24% Calm Calm -- 30.20 in1022.7 mb - 0.00 in0.0 mm 0.00 in0.0 mm
03:50 PM 49.4°F9.7°C 14.1°F-9.9°C 24% Calm Calm 1.2 mph1.9 kmh 30.19 in1022.4 mb - 0.00 in0.0 mm 0.00 in0.0 mm
04:00 PM 48.8°F9.3°C 13.5°F-10.3°C 24% Calm Calm 3.5 mph5.6 kmh 30.19 in1022.4 mb - 0.00 in0.0 mm 0.00 in0.0 mm
04:10 PM 49.0°F9.4°C 13.7°F-10.2°C 24% Calm Calm 1.2 mph1.9 kmh 30.19 in1022.4 mb - 0.00 in0.0 mm 0.00 in0.0 mm
04:20 PM 48.2°F9.0°C 13.0°F-10.6°C 24% 1.2 mph SSW1.9 kmh SSW 3.5 mph5.6 kmh 30.19 in1022.4 mb - 0.00 in0.0 mm 0.00 in0.0 mm
04:30 PM 47.7°F8.7°C 12.6°F-10.8°C 24% Calm Calm 3.5 mph5.6 kmh 30.20 in1022.7 mb - 0.00 in0.0 mm 0.00 in0.0 mm
04:40 PM 47.5°F8.6°C 12.4°F-10.9°C 24% Calm Calm 3.5 mph5.6 kmh 30.20 in1022.7 mb - 0.00 in0.0 mm 0.00 in0.0 mm
04:50 PM 47.1°F8.4°C 12.1°F-11.1°C 24% 1.2 mph S1.9 kmh S 3.5 mph5.6 kmh 30.19 in1022.4 mb - 0.00 in0.0 mm 0.00 in0.0 mm
05:00 PM 46.6°F8.1°C 11.7°F-11.3°C 24% Calm Calm 1.2 mph1.9 kmh 30.19 in1022.4 mb - 0.00 in0.0 mm 0.00 in0.0 mm
05:10 PM 45.9°F7.7°C 11.1°F-11.6°C 24% Calm Calm 1.2 mph1.9 kmh 30.19 in1022.4 mb - 0.00 in0.0 mm 0.00 in0.0 mm
05:20 PM 45.3°F7.4°C 10.6°F-11.9°C 24% Calm Calm 1.2 mph1.9 kmh 30.19 in1022.4 mb - 0.00 in0.0 mm 0.00 in0.0 mm
05:30 PM 44.9°F7.2°C 11.1°F-11.6°C 25% Calm Calm 1.2 mph1.9 kmh 30.20 in1022.7 mb - 0.00 in0.0 mm 0.00 in0.0 mm
05:40 PM 44.6°F7.0°C 10.9°F-11.7°C 25% 1.2 mph S1.9 kmh S 1.2 mph1.9 kmh 30.20 in1022.7 mb - 0.00 in0.0 mm 0.00 in0.0 mm
05:50 PM 44.3°F6.8°C 10.6°F-11.9°C 25% 1.2 mph S1.9 kmh S 3.5 mph5.6 kmh 30.20 in1022.7 mb - 0.00 in0.0 mm 0.00 in0.0 mm
06:00 PM 43.9°F6.6°C 11.2°F-11.6°C 26% Calm Calm 1.2 mph1.9 kmh 30.20 in1022.7 mb - 0.00 in0.0 mm 0.00 in0.0 mm
06:10 PM 43.4°F6.3°C 10.7°F-11.8°C 26% Calm Calm -- 30.21 in1023.0 mb - 0.00 in0.0 mm 0.00 in0.0 mm
06:21 PM 42.6°F5.9°C 10.9°F-11.7°C 27% Calm Calm -- 30.21 in1023.0 mb - 0.00 in0.0 mm 0.00 in0.0 mm
06:30 PM 41.8°F5.4°C 10.2°F-12.1°C 27% Calm Calm 1.2 mph1.9 kmh 30.21 in1023.0 mb - 0.00 in0.0 mm 0.00 in0.0 mm
06:40 PM 41.0°F5.0°C 10.4°F-12.0°C 28% Calm Calm 1.2 mph1.9 kmh 30.21 in1023.0 mb - 0.00 in0.0 mm 0.00 in0.0 mm
07:00 PM 39.7°F4.3°C 10.0°F-12.2°C 29% Calm Calm 2.3 mph3.7 kmh 30.21 in1023.0 mb - 0.00 in0.0 mm 0.00 in0.0 mm
07:10 PM 39.6°F4.2°C 9.9°F-12.3°C 29% Calm Calm 1.2 mph1.9 kmh 30.21 in1023.0 mb - 0.00 in0.0 mm 0.00 in0.0 mm
07:20 PM 39.3°F4.1°C 9.6°F-12.4°C 29% Calm Calm 2.3 mph3.7 kmh 30.21 in1023.0 mb - 0.00 in0.0 mm 0.00 in0.0 mm
07:30 PM 38.7°F3.7°C 9.9°F-12.3°C 30% Calm Calm 2.3 mph3.7 kmh 30.21 in1023.0 mb - 0.00 in0.0 mm 0.00 in0.0 mm
07:40 PM 38.1°F3.4°C 10.1°F-12.2°C 31% Calm Calm 1.2 mph1.9 kmh 30.21 in1023.0 mb - 0.00 in0.0 mm 0.00 in0.0 mm
08:00 PM 37.5°F3.1°C 10.3°F-12.1°C 32% Calm Calm -- 30.21 in1023.0 mb - 0.00 in0.0 mm 0.00 in0.0 mm
08:10 PM 37.1°F2.8°C 10.6°F-11.9°C 33% Calm Calm -- 30.22 in1023.4 mb - 0.00 in0.0 mm 0.00 in0.0 mm
08:20 PM 36.8°F2.7°C 10.3°F-12.1°C 33% Calm Calm 1.2 mph1.9 kmh 30.22 in1023.4 mb - 0.00 in0.0 mm 0.00 in0.0 mm
08:30 PM 36.8°F2.7°C 11.0°F-11.7°C 34% Calm Calm 1.2 mph1.9 kmh 30.22 in1023.4 mb - 0.00 in0.0 mm 0.00 in0.0 mm
08:40 PM 36.7°F2.6°C 10.9°F-11.7°C 34% Calm Calm 1.2 mph1.9 kmh 30.21 in1023.0 mb - 0.00 in0.0 mm 0.00 in0.0 mm
08:50 PM 36.4°F2.4°C 11.3°F-11.5°C 35% Calm Calm 1.2 mph1.9 kmh 30.21 in1023.0 mb - 0.00 in0.0 mm 0.00 in0.0 mm
09:00 PM 36.3°F2.4°C 11.2°F-11.6°C 35% Calm Calm 1.2 mph1.9 kmh 30.21 in1023.0 mb - 0.00 in0.0 mm 0.00 in0.0 mm
09:10 PM 36.4°F2.4°C 11.9°F-11.2°C 36% Calm Calm 1.2 mph1.9 kmh 30.21 in1023.0 mb - 0.00 in0.0 mm 0.00 in0.0 mm
09:20 PM 36.0°F2.2°C 11.6°F-11.3°C 36% Calm Calm 2.3 mph3.7 kmh 30.21 in1023.0 mb - 0.00 in0.0 mm 0.00 in0.0 mm
09:30 PM 36.2°F2.3°C 11.8°F-11.2°C 36% Calm Calm 2.3 mph3.7 kmh 30.21 in1023.0 mb - 0.00 in0.0 mm 0.00 in0.0 mm
09:40 PM 36.3°F2.4°C 11.9°F-11.2°C 36% Calm Calm 2.3 mph3.7 kmh 30.21 in1023.0 mb - 0.00 in0.0 mm 0.00 in0.0 mm
09:50 PM 36.2°F2.3°C 12.4°F-10.9°C 37% Calm Calm 3.5 mph5.6 kmh 30.22 in1023.4 mb - 0.00 in0.0 mm 0.00 in0.0 mm
10:00 PM 36.2°F2.3°C 11.7°F-11.3°C 36% 1.2 mph SW1.9 kmh SW 3.5 mph5.6 kmh 30.22 in1023.4 mb - 0.00 in0.0 mm 0.00 in0.0 mm
10:10 PM 36.1°F2.3°C 12.3°F-10.9°C 37% Calm Calm -- 30.22 in1023.4 mb - 0.00 in0.0 mm 0.00 in0.0 mm
10:20 PM 35.9°F2.2°C 12.1°F-11.1°C 37% Calm Calm -- 30.22 in1023.4 mb - 0.00 in0.0 mm 0.00 in0.0 mm
10:30 PM 35.8°F2.1°C 12.6°F-10.8°C 38% Calm Calm 1.2 mph1.9 kmh 30.22 in1023.4 mb - 0.00 in0.0 mm 0.00 in0.0 mm
10:40 PM 35.7°F2.1°C 13.1°F-10.5°C 39% Calm Calm 2.3 mph3.7 kmh 30.22 in1023.4 mb - 0.00 in0.0 mm 0.00 in0.0 mm
10:50 PM 35.6°F2.0°C 13.0°F-10.6°C 39% Calm Calm 1.2 mph1.9 kmh 30.23 in1023.7 mb - 0.00 in0.0 mm 0.00 in0.0 mm
11:00 PM 35.6°F2.0°C 14.2°F-9.9°C 41% Calm Calm 2.3 mph3.7 kmh 30.22 in1023.4 mb - 0.00 in0.0 mm 0.00 in0.0 mm
11:20 PM 35.1°F1.7°C 14.3°F-9.8°C 42% Calm Calm -- 30.22 in1023.4 mb - 0.00 in0.0 mm 0.00 in0.0 mm
11:30 PM 34.8°F1.6°C 14.5°F-9.7°C 43% Calm Calm 1.2 mph1.9 kmh 30.22 in1023.4 mb - 0.00 in0.0 mm 0.00 in0.0 mm
11:41 PM 34.6°F1.4°C 14.3°F-9.8°C 43% Calm Calm -- 30.22 in1023.4 mb - 0.00 in0.0 mm 0.00 in0.0 mm
11:50 PM 34.1°F1.2°C 14.4°F-9.8°C 44% Calm Calm -- 30.21 in1023.0 mb - 0.00 in0.0 mm 0.00 in0.0 mm